sensor_id;sensor_type;location;lat;lon;timestamp;temperature;humidity
35804;DHT22;21924;51.934;7.414;2023-02-23T00:02:29;8.80;99.90
35804;DHT22;21924;51.934;7.414;2023-02-23T00:05:14;8.80;99.90
35804;DHT22;21924;51.934;7.414;2023-02-23T00:07:58;8.80;99.90
35804;DHT22;21924;51.934;7.414;2023-02-23T00:10:42;8.80;99.90
35804;DHT22;21924;51.934;7.414;2023-02-23T00:13:27;8.90;99.90
35804;DHT22;21924;51.934;7.414;2023-02-23T00:16:15;8.80;99.90
35804;DHT22;21924;51.934;7.414;2023-02-23T00:19:00;8.90;99.90
35804;DHT22;21924;51.934;7.414;2023-02-23T00:21:45;8.90;99.90
35804;DHT22;21924;51.934;7.414;2023-02-23T00:24:29;8.80;99.90
35804;DHT22;21924;51.934;7.414;2023-02-23T00:27:14;8.90;99.90
35804;DHT22;21924;51.934;7.414;2023-02-23T00:30:01;8.80;99.90
35804;DHT22;21924;51.934;7.414;2023-02-23T00:32:45;8.70;99.90
35804;DHT22;21924;51.934;7.414;2023-02-23T00:35:29;8.80;99.90
35804;DHT22;21924;51.934;7.414;2023-02-23T00:38:13;8.80;99.90
35804;DHT22;21924;51.934;7.414;2023-02-23T00:40:58;8.80;99.90
35804;DHT22;21924;51.934;7.414;2023-02-23T00:43:42;8.80;99.90
35804;DHT22;21924;51.934;7.414;2023-02-23T00:46:33;8.80;99.90
35804;DHT22;21924;51.934;7.414;2023-02-23T00:49:19;8.80;99.90
35804;DHT22;21924;51.934;7.414;2023-02-23T00:52:03;8.80;99.90
35804;DHT22;21924;51.934;7.414;2023-02-23T00:54:48;8.70;99.90
35804;DHT22;21924;51.934;7.414;2023-02-23T00:57:32;8.70;99.90
35804;DHT22;21924;51.934;7.414;2023-02-23T01:00:17;8.70;99.90
35804;DHT22;21924;51.934;7.414;2023-02-23T01:03:03;8.80;99.90
35804;DHT22;21924;51.934;7.414;2023-02-23T01:05:47;8.70;99.90
35804;DHT22;21924;51.934;7.414;2023-02-23T01:08:36;8.70;99.90
35804;DHT22;21924;51.934;7.414;2023-02-23T01:11:26;8.70;99.90
35804;DHT22;21924;51.934;7.414;2023-02-23T01:14:11;8.70;99.90
35804;DHT22;21924;51.934;7.414;2023-02-23T01:16:55;8.70;99.90
35804;DHT22;21924;51.934;7.414;2023-02-23T01:19:39;8.70;99.90
35804;DHT22;21924;51.934;7.414;2023-02-23T01:22:24;8.70;99.90
35804;DHT22;21924;51.934;7.414;2023-02-23T01:25:08;8.70;99.90
35804;DHT22;21924;51.934;7.414;2023-02-23T01:27:55;8.70;99.90
35804;DHT22;21924;51.934;7.414;2023-02-23T01:30:39;8.70;99.90
35804;DHT22;21924;51.934;7.414;2023-02-23T01:33:24;8.70;99.90
35804;DHT22;21924;51.934;7.414;2023-02-23T01:36:08;8.70;99.90
35804;DHT22;21924;51.934;7.414;2023-02-23T01:38:52;8.60;99.90
35804;DHT22;21924;51.934;7.414;2023-02-23T01:41:40;8.70;99.90
35804;DHT22;21924;51.934;7.414;2023-02-23T01:47:14;8.60;99.90
35804;DHT22;21924;51.934;7.414;2023-02-23T01:50:00;8.70;99.90
35804;DHT22;21924;51.934;7.414;2023-02-23T01:52:46;8.60;99.90
35804;DHT22;21924;51.934;7.414;2023-02-23T01:55:32;8.60;99.90
35804;DHT22;21924;51.934;7.414;2023-02-23T01:58:18;8.60;99.90
35804;DHT22;21924;51.934;7.414;2023-02-23T02:01:03;8.60;99.90
35804;DHT22;21924;51.934;7.414;2023-02-23T02:03:56;8.60;99.90
35804;DHT22;21924;51.934;7.414;2023-02-23T02:06:44;8.50;99.90
35804;DHT22;21924;51.934;7.414;2023-02-23T02:09:29;8.50;99.90
35804;DHT22;21924;51.934;7.414;2023-02-23T02:12:20;8.50;99.90
35804;DHT22;21924;51.934;7.414;2023-02-23T02:15:07;8.50;99.90
35804;DHT22;21924;51.934;7.414;2023-02-23T02:46:18;8.50;99.90
35804;DHT22;21924;51.934;7.414;2023-02-23T02:51:59;8.50;99.90
35804;DHT22;21924;51.934;7.414;2023-02-23T02:54:59;8.50;99.90
35804;DHT22;21924;51.934;7.414;2023-02-23T02:57:46;8.50;99.90
35804;DHT22;21924;51.934;7.414;2023-02-23T03:00:41;8.50;99.90
35804;DHT22;21924;51.934;7.414;2023-02-23T03:03:46;8.50;99.90
35804;DHT22;21924;51.934;7.414;2023-02-23T03:06:58;8.50;99.90
35804;DHT22;21924;51.934;7.414;2023-02-23T03:10:32;8.50;99.90
35804;DHT22;21924;51.934;7.414;2023-02-23T03:20:41;8.50;99.90
35804;DHT22;21924;51.934;7.414;2023-02-23T03:23:58;8.40;99.90
35804;DHT22;21924;51.934;7.414;2023-02-23T03:30:58;8.40;99.90
35804;DHT22;21924;51.934;7.414;2023-02-23T03:34:12;8.40;99.90
35804;DHT22;21924;51.934;7.414;2023-02-23T03:37:30;8.40;99.90
35804;DHT22;21924;51.934;7.414;2023-02-23T03:40:39;8.40;99.90
35804;DHT22;21924;51.934;7.414;2023-02-23T03:43:55;8.40;99.90
35804;DHT22;21924;51.934;7.414;2023-02-23T03:47:02;8.40;99.90
35804;DHT22;21924;51.934;7.414;2023-02-23T03:50:09;8.50;99.90
35804;DHT22;21924;51.934;7.414;2023-02-23T03:53:16;8.40;99.90
35804;DHT22;21924;51.934;7.414;2023-02-23T03:56:23;8.40;99.90
35804;DHT22;21924;51.934;7.414;2023-02-23T03:59:32;8.40;99.90
35804;DHT22;21924;51.934;7.414;2023-02-23T04:02:39;8.40;99.90
35804;DHT22;21924;51.934;7.414;2023-02-23T04:05:44;8.40;99.90
35804;DHT22;21924;51.934;7.414;2023-02-23T04:08:49;8.40;99.90
35804;DHT22;21924;51.934;7.414;2023-02-23T04:12:08;8.40;99.90
35804;DHT22;21924;51.934;7.414;2023-02-23T04:15:22;8.40;99.90
35804;DHT22;21924;51.934;7.414;2023-02-23T04:18:10;8.40;99.90
35804;DHT22;21924;51.934;7.414;2023-02-23T04:20:56;8.40;99.90
35804;DHT22;21924;51.934;7.414;2023-02-23T04:23:41;8.40;99.90
35804;DHT22;21924;51.934;7.414;2023-02-23T04:26:26;8.40;99.90
35804;DHT22;21924;51.934;7.414;2023-02-23T04:29:11;8.30;99.90
35804;DHT22;21924;51.934;7.414;2023-02-23T04:31:55;8.40;99.90
35804;DHT22;21924;51.934;7.414;2023-02-23T04:34:40;8.30;99.90
35804;DHT22;21924;51.934;7.414;2023-02-23T04:37:24;8.30;99.90
35804;DHT22;21924;51.934;7.414;2023-02-23T04:40:09;8.30;99.90
35804;DHT22;21924;51.934;7.414;2023-02-23T04:42:53;8.30;99.90
35804;DHT22;21924;51.934;7.414;2023-02-23T04:45:38;8.30;99.90
35804;DHT22;21924;51.934;7.414;2023-02-23T04:48:22;8.30;99.90
35804;DHT22;21924;51.934;7.414;2023-02-23T04:51:08;8.30;99.90
35804;DHT22;21924;51.934;7.414;2023-02-23T04:53:52;8.30;99.90
35804;DHT22;21924;51.934;7.414;2023-02-23T04:56:36;8.30;99.90
35804;DHT22;21924;51.934;7.414;2023-02-23T04:59:22;8.30;99.90
35804;DHT22;21924;51.934;7.414;2023-02-23T05:02:07;8.30;99.90
35804;DHT22;21924;51.934;7.414;2023-02-23T05:04:51;8.20;99.90
35804;DHT22;21924;51.934;7.414;2023-02-23T05:07:35;8.30;99.90
35804;DHT22;21924;51.934;7.414;2023-02-23T05:10:20;8.30;99.90
35804;DHT22;21924;51.934;7.414;2023-02-23T05:13:04;8.30;99.90
35804;DHT22;21924;51.934;7.414;2023-02-23T05:15:49;8.30;99.90
35804;DHT22;21924;51.934;7.414;2023-02-23T05:18:33;8.30;99.90
35804;DHT22;21924;51.934;7.414;2023-02-23T05:21:17;8.30;99.90
35804;DHT22;21924;51.934;7.414;2023-02-23T05:24:02;8.30;99.90
35804;DHT22;21924;51.934;7.414;2023-02-23T05:26:46;8.30;99.90
35804;DHT22;21924;51.934;7.414;2023-02-23T05:29:31;8.30;99.90
35804;DHT22;21924;51.934;7.414;2023-02-23T05:32:16;8.30;99.90
35804;DHT22;21924;51.934;7.414;2023-02-23T05:35:00;8.30;99.90
35804;DHT22;21924;51.934;7.414;2023-02-23T05:37:45;8.30;99.90
35804;DHT22;21924;51.934;7.414;2023-02-23T05:40:29;8.20;99.90
35804;DHT22;21924;51.934;7.414;2023-02-23T05:43:13;8.20;99.90
35804;DHT22;21924;51.934;7.414;2023-02-23T05:45:58;8.30;99.90
35804;DHT22;21924;51.934;7.414;2023-02-23T05:48:44;8.30;99.90
35804;DHT22;21924;51.934;7.414;2023-02-23T05:51:30;8.20;99.90
35804;DHT22;21924;51.934;7.414;2023-02-23T05:54:14;8.20;99.90
35804;DHT22;21924;51.934;7.414;2023-02-23T05:56:58;8.20;99.90
35804;DHT22;21924;51.934;7.414;2023-02-23T05:59:43;8.20;99.90
35804;DHT22;21924;51.934;7.414;2023-02-23T06:02:27;8.20;99.90
35804;DHT22;21924;51.934;7.414;2023-02-23T06:05:12;8.20;99.90
35804;DHT22;21924;51.934;7.414;2023-02-23T06:07:57;8.20;99.90
35804;DHT22;21924;51.934;7.414;2023-02-23T06:10:41;8.20;99.90
35804;DHT22;21924;51.934;7.414;2023-02-23T06:13:25;8.10;99.90
35804;DHT22;21924;51.934;7.414;2023-02-23T06:16:10;8.10;99.90
35804;DHT22;21924;51.934;7.414;2023-02-23T06:18:55;8.10;99.90
35804;DHT22;21924;51.934;7.414;2023-02-23T06:21:39;8.20;99.90
35804;DHT22;21924;51.934;7.414;2023-02-23T06:24:24;8.10;99.90
35804;DHT22;21924;51.934;7.414;2023-02-23T06:27:08;8.10;99.90
35804;DHT22;21924;51.934;7.414;2023-02-23T06:29:52;8.20;99.90
35804;DHT22;21924;51.934;7.414;2023-02-23T06:32:37;8.10;99.90
35804;DHT22;21924;51.934;7.414;2023-02-23T06:35:21;8.10;99.90
35804;DHT22;21924;51.934;7.414;2023-02-23T06:38:05;8.20;99.90
35804;DHT22;21924;51.934;7.414;2023-02-23T06:40:50;8.20;99.90
35804;DHT22;21924;51.934;7.414;2023-02-23T06:43:34;8.10;99.90
35804;DHT22;21924;51.934;7.414;2023-02-23T06:46:18;8.20;99.90
35804;DHT22;21924;51.934;7.414;2023-02-23T06:49:03;8.20;99.90
35804;DHT22;21924;51.934;7.414;2023-02-23T06:51:47;8.10;99.90
35804;DHT22;21924;51.934;7.414;2023-02-23T06:54:31;8.20;99.90
35804;DHT22;21924;51.934;7.414;2023-02-23T06:57:17;8.20;99.90
35804;DHT22;21924;51.934;7.414;2023-02-23T07:00:03;8.20;99.90
35804;DHT22;21924;51.934;7.414;2023-02-23T07:02:47;8.20;99.90
35804;DHT22;21924;51.934;7.414;2023-02-23T07:05:31;8.10;99.90
35804;DHT22;21924;51.934;7.414;2023-02-23T07:08:16;8.10;99.90
35804;DHT22;21924;51.934;7.414;2023-02-23T07:11:08;8.10;99.90
35804;DHT22;21924;51.934;7.414;2023-02-23T07:13:52;8.10;99.90
35804;DHT22;21924;51.934;7.414;2023-02-23T07:16:37;8.00;99.90
35804;DHT22;21924;51.934;7.414;2023-02-23T07:19:22;8.10;99.90
35804;DHT22;21924;51.934;7.414;2023-02-23T07:22:06;8.00;99.90
35804;DHT22;21924;51.934;7.414;2023-02-23T07:24:50;8.10;99.90
35804;DHT22;21924;51.934;7.414;2023-02-23T07:27:34;8.10;99.90
35804;DHT22;21924;51.934;7.414;2023-02-23T07:30:20;8.10;99.90
35804;DHT22;21924;51.934;7.414;2023-02-23T07:33:07;8.10;99.90
35804;DHT22;21924;51.934;7.414;2023-02-23T07:35:51;8.00;99.90
35804;DHT22;21924;51.934;7.414;2023-02-23T07:38:35;8.10;99.90
35804;DHT22;21924;51.934;7.414;2023-02-23T07:41:20;8.10;99.90
35804;DHT22;21924;51.934;7.414;2023-02-23T07:44:05;8.10;99.90
35804;DHT22;21924;51.934;7.414;2023-02-23T07:46:49;8.10;99.90
35804;DHT22;21924;51.934;7.414;2023-02-23T07:49:33;8.10;99.90
35804;DHT22;21924;51.934;7.414;2023-02-23T07:52:18;8.10;99.90
35804;DHT22;21924;51.934;7.414;2023-02-23T07:55:02;8.10;99.90
35804;DHT22;21924;51.934;7.414;2023-02-23T07:57:47;8.20;99.90
35804;DHT22;21924;51.934;7.414;2023-02-23T08:00:32;8.20;99.90
35804;DHT22;21924;51.934;7.414;2023-02-23T08:03:16;8.20;99.90
35804;DHT22;21924;51.934;7.414;2023-02-23T08:06:01;8.30;99.90
35804;DHT22;21924;51.934;7.414;2023-02-23T08:08:45;8.20;99.90
35804;DHT22;21924;51.934;7.414;2023-02-23T08:11:29;8.30;99.90
35804;DHT22;21924;51.934;7.414;2023-02-23T08:14:14;8.30;99.90
35804;DHT22;21924;51.934;7.414;2023-02-23T08:16:58;8.30;99.90
35804;DHT22;21924;51.934;7.414;2023-02-23T08:19:44;8.30;99.90
35804;DHT22;21924;51.934;7.414;2023-02-23T08:22:28;8.40;99.90
35804;DHT22;21924;51.934;7.414;2023-02-23T08:25:13;8.40;99.90
35804;DHT22;21924;51.934;7.414;2023-02-23T08:27:57;8.40;99.90
35804;DHT22;21924;51.934;7.414;2023-02-23T08:30:47;8.30;99.90
35804;DHT22;21924;51.934;7.414;2023-02-23T08:33:31;8.30;99.90
35804;DHT22;21924;51.934;7.414;2023-02-23T08:36:15;8.40;99.90
35804;DHT22;21924;51.934;7.414;2023-02-23T08:39:00;8.30;99.90
35804;DHT22;21924;51.934;7.414;2023-02-23T08:41:45;8.30;99.90
35804;DHT22;21924;51.934;7.414;2023-02-23T08:44:29;8.30;99.90
35804;DHT22;21924;51.934;7.414;2023-02-23T08:47:14;8.30;99.90
35804;DHT22;21924;51.934;7.414;2023-02-23T08:49:59;8.30;99.90
35804;DHT22;21924;51.934;7.414;2023-02-23T08:52:44;8.30;99.90
35804;DHT22;21924;51.934;7.414;2023-02-23T08:55:28;8.30;99.90
35804;DHT22;21924;51.934;7.414;2023-02-23T08:58:12;8.30;99.90
35804;DHT22;21924;51.934;7.414;2023-02-23T09:00:56;8.40;99.90
35804;DHT22;21924;51.934;7.414;2023-02-23T09:03:41;8.40;99.90
35804;DHT22;21924;51.934;7.414;2023-02-23T09:06:26;8.40;99.90
35804;DHT22;21924;51.934;7.414;2023-02-23T09:09:10;8.40;99.90
35804;DHT22;21924;51.934;7.414;2023-02-23T09:11:54;8.40;99.90
35804;DHT22;21924;51.934;7.414;2023-02-23T09:14:39;8.40;99.90
35804;DHT22;21924;51.934;7.414;2023-02-23T09:17:23;8.40;99.90
35804;DHT22;21924;51.934;7.414;2023-02-23T09:20:10;8.40;99.90
35804;DHT22;21924;51.934;7.414;2023-02-23T09:22:56;8.40;99.90
35804;DHT22;21924;51.934;7.414;2023-02-23T09:25:41;8.50;99.90
35804;DHT22;21924;51.934;7.414;2023-02-23T09:28:26;8.40;99.90
35804;DHT22;21924;51.934;7.414;2023-02-23T09:31:16;8.30;99.90
35804;DHT22;21924;51.934;7.414;2023-02-23T09:34:01;8.40;99.90
35804;DHT22;21924;51.934;7.414;2023-02-23T09:36:45;8.30;99.90
35804;DHT22;21924;51.934;7.414;2023-02-23T09:39:31;8.30;99.90
35804;DHT22;21924;51.934;7.414;2023-02-23T09:42:40;8.30;99.90
35804;DHT22;21924;51.934;7.414;2023-02-23T09:45:50;8.20;99.90
35804;DHT22;21924;51.934;7.414;2023-02-23T09:48:35;8.40;99.90
35804;DHT22;21924;51.934;7.414;2023-02-23T09:51:20;8.30;99.90
35804;DHT22;21924;51.934;7.414;2023-02-23T09:54:08;8.30;99.90
35804;DHT22;21924;51.934;7.414;2023-02-23T09:56:54;8.30;99.90
35804;DHT22;21924;51.934;7.414;2023-02-23T09:59:41;8.30;99.90
35804;DHT22;21924;51.934;7.414;2023-02-23T10:05:17;8.30;99.90
35804;DHT22;21924;51.934;7.414;2023-02-23T10:08:05;8.30;99.90
35804;DHT22;21924;51.934;7.414;2023-02-23T10:23:05;8.20;99.90
35804;DHT22;21924;51.934;7.414;2023-02-23T10:25:51;8.20;99.90
35804;DHT22;21924;51.934;7.414;2023-02-23T10:28:37;8.10;99.90
35804;DHT22;21924;51.934;7.414;2023-02-23T10:31:33;8.10;99.90
35804;DHT22;21924;51.934;7.414;2023-02-23T10:34:20;8.20;99.90
35804;DHT22;21924;51.934;7.414;2023-02-23T10:37:06;8.20;99.90
35804;DHT22;21924;51.934;7.414;2023-02-23T10:39:54;8.20;99.90
35804;DHT22;21924;51.934;7.414;2023-02-23T10:42:38;8.30;99.90
35804;DHT22;21924;51.934;7.414;2023-02-23T10:45:24;8.30;99.90
35804;DHT22;21924;51.934;7.414;2023-02-23T10:48:17;8.20;99.90
35804;DHT22;21924;51.934;7.414;2023-02-23T10:51:02;8.20;99.90
35804;DHT22;21924;51.934;7.414;2023-02-23T10:53:46;8.10;99.90
35804;DHT22;21924;51.934;7.414;2023-02-23T10:56:31;8.00;99.90
35804;DHT22;21924;51.934;7.414;2023-02-23T10:59:25;8.00;99.90
35804;DHT22;21924;51.934;7.414;2023-02-23T11:02:22;8.00;99.90
35804;DHT22;21924;51.934;7.414;2023-02-23T11:08:35;8.10;99.90
35804;DHT22;21924;51.934;7.414;2023-02-23T11:11:27;8.10;99.90
35804;DHT22;21924;51.934;7.414;2023-02-23T11:14:15;8.00;99.90
35804;DHT22;21924;51.934;7.414;2023-02-23T11:17:00;7.90;99.90
35804;DHT22;21924;51.934;7.414;2023-02-23T11:19:44;7.90;99.90
35804;DHT22;21924;51.934;7.414;2023-02-23T11:22:33;8.00;99.90
35804;DHT22;21924;51.934;7.414;2023-02-23T11:25:28;8.00;99.90
35804;DHT22;21924;51.934;7.414;2023-02-23T11:28:50;8.00;99.90
35804;DHT22;21924;51.934;7.414;2023-02-23T11:31:31;8.00;99.90
35804;DHT22;21924;51.934;7.414;2023-02-23T11:34:40;8.10;99.90
35804;DHT22;21924;51.934;7.414;2023-02-23T11:37:30;8.10;99.90
35804;DHT22;21924;51.934;7.414;2023-02-23T11:40:31;8.00;99.90
35804;DHT22;21924;51.934;7.414;2023-02-23T11:43:17;8.10;99.90
35804;DHT22;21924;51.934;7.414;2023-02-23T11:49:43;8.20;99.90
35804;DHT22;21924;51.934;7.414;2023-02-23T11:52:28;8.20;99.90
35804;DHT22;21924;51.934;7.414;2023-02-23T11:55:16;8.30;99.90
35804;DHT22;21924;51.934;7.414;2023-02-23T11:58:39;8.30;99.90
35804;DHT22;21924;51.934;7.414;2023-02-23T12:01:44;8.30;99.90
35804;DHT22;21924;51.934;7.414;2023-02-23T12:04:35;8.30;99.90
35804;DHT22;21924;51.934;7.414;2023-02-23T12:07:39;8.20;99.90
35804;DHT22;21924;51.934;7.414;2023-02-23T12:14:10;8.20;99.90
35804;DHT22;21924;51.934;7.414;2023-02-23T12:16:38;8.20;99.90
35804;DHT22;21924;51.934;7.414;2023-02-23T12:19:32;8.20;99.90
35804;DHT22;21924;51.934;7.414;2023-02-23T12:22:21;8.20;99.90
35804;DHT22;21924;51.934;7.414;2023-02-23T12:25:23;8.30;99.90
35804;DHT22;21924;51.934;7.414;2023-02-23T12:34:23;8.20;99.90
35804;DHT22;21924;51.934;7.414;2023-02-23T12:40:27;8.40;99.90
35804;DHT22;21924;51.934;7.414;2023-02-23T12:43:18;8.40;99.90
35804;DHT22;21924;51.934;7.414;2023-02-23T12:46:15;8.40;99.90
35804;DHT22;21924;51.934;7.414;2023-02-23T12:49:12;8.30;99.90
35804;DHT22;21924;51.934;7.414;2023-02-23T12:52:21;8.30;99.90
35804;DHT22;21924;51.934;7.414;2023-02-23T12:55:10;8.30;99.90
35804;DHT22;21924;51.934;7.414;2023-02-23T12:58:05;8.40;99.90
35804;DHT22;21924;51.934;7.414;2023-02-23T13:03:51;8.30;99.90
35804;DHT22;21924;51.934;7.414;2023-02-23T13:06:38;8.20;99.90
35804;DHT22;21924;51.934;7.414;2023-02-23T13:09:45;8.20;99.90
35804;DHT22;21924;51.934;7.414;2023-02-23T13:18:51;8.10;99.90
35804;DHT22;21924;51.934;7.414;2023-02-23T13:22:00;8.00;99.90
35804;DHT22;21924;51.934;7.414;2023-02-23T13:24:48;8.00;99.90
35804;DHT22;21924;51.934;7.414;2023-02-23T13:27:41;8.00;99.90
35804;DHT22;21924;51.934;7.414;2023-02-23T13:30:28;7.90;99.90
35804;DHT22;21924;51.934;7.414;2023-02-23T13:33:26;7.90;99.90
35804;DHT22;21924;51.934;7.414;2023-02-23T13:36:12;7.90;99.90
35804;DHT22;21924;51.934;7.414;2023-02-23T13:48:42;7.90;99.90
35804;DHT22;21924;51.934;7.414;2023-02-23T13:51:48;7.90;99.90
35804;DHT22;21924;51.934;7.414;2023-02-23T13:54:35;7.90;99.90
35804;DHT22;21924;51.934;7.414;2023-02-23T13:57:21;7.90;99.90
35804;DHT22;21924;51.934;7.414;2023-02-23T14:00:18;7.90;99.90
35804;DHT22;21924;51.934;7.414;2023-02-23T14:03:07;7.80;99.90
35804;DHT22;21924;51.934;7.414;2023-02-23T14:05:54;7.80;99.90
35804;DHT22;21924;51.934;7.414;2023-02-23T14:08:41;7.80;99.90
35804;DHT22;21924;51.934;7.414;2023-02-23T14:11:36;7.80;99.90
35804;DHT22;21924;51.934;7.414;2023-02-23T14:20:39;7.80;99.90
35804;DHT22;21924;51.934;7.414;2023-02-23T14:23:29;7.80;99.90
35804;DHT22;21924;51.934;7.414;2023-02-23T14:26:35;7.80;99.90
35804;DHT22;21924;51.934;7.414;2023-02-23T14:29:23;7.90;99.90
35804;DHT22;21924;51.934;7.414;2023-02-23T14:35:00;7.90;99.90
35804;DHT22;21924;51.934;7.414;2023-02-23T14:37:54;7.90;99.90
35804;DHT22;21924;51.934;7.414;2023-02-23T14:40:41;8.00;99.90
35804;DHT22;21924;51.934;7.414;2023-02-23T14:46:24;7.90;99.90
35804;DHT22;21924;51.934;7.414;2023-02-23T14:49:17;7.90;99.90
35804;DHT22;21924;51.934;7.414;2023-02-23T14:52:22;7.90;99.90
35804;DHT22;21924;51.934;7.414;2023-02-23T14:57:54;8.00;99.90
35804;DHT22;21924;51.934;7.414;2023-02-23T15:00:41;8.00;99.90
35804;DHT22;21924;51.934;7.414;2023-02-23T15:03:27;8.00;99.90
35804;DHT22;21924;51.934;7.414;2023-02-23T15:06:11;8.00;99.90
35804;DHT22;21924;51.934;7.414;2023-02-23T15:08:55;8.00;99.90
35804;DHT22;21924;51.934;7.414;2023-02-23T15:11:40;7.90;99.90
35804;DHT22;21924;51.934;7.414;2023-02-23T15:14:30;7.80;99.90
35804;DHT22;21924;51.934;7.414;2023-02-23T15:17:19;7.80;99.90
35804;DHT22;21924;51.934;7.414;2023-02-23T15:20:06;7.80;99.90
35804;DHT22;21924;51.934;7.414;2023-02-23T15:22:55;7.80;99.90
35804;DHT22;21924;51.934;7.414;2023-02-23T15:25:42;7.80;99.90
35804;DHT22;21924;51.934;7.414;2023-02-23T15:28:30;7.70;99.90
35804;DHT22;21924;51.934;7.414;2023-02-23T15:31:15;7.70;99.90
35804;DHT22;21924;51.934;7.414;2023-02-23T15:34:00;7.70;99.90
35804;DHT22;21924;51.934;7.414;2023-02-23T15:36:59;7.70;99.90
35804;DHT22;21924;51.934;7.414;2023-02-23T15:39:48;7.60;99.90
35804;DHT22;21924;51.934;7.414;2023-02-23T15:42:38;7.60;99.90
35804;DHT22;21924;51.934;7.414;2023-02-23T15:45:39;7.60;99.90
35804;DHT22;21924;51.934;7.414;2023-02-23T15:48:39;7.60;99.90
35804;DHT22;21924;51.934;7.414;2023-02-23T15:54:27;7.60;99.90
35804;DHT22;21924;51.934;7.414;2023-02-23T15:57:25;7.60;99.90
35804;DHT22;21924;51.934;7.414;2023-02-23T16:00:17;7.60;99.90
35804;DHT22;21924;51.934;7.414;2023-02-23T16:03:04;7.60;99.90
35804;DHT22;21924;51.934;7.414;2023-02-23T16:09:26;7.60;99.90
35804;DHT22;21924;51.934;7.414;2023-02-23T16:12:21;7.60;99.90
35804;DHT22;21924;51.934;7.414;2023-02-23T16:15:24;7.60;99.90
35804;DHT22;21924;51.934;7.414;2023-02-23T16:18:15;7.70;99.90
35804;DHT22;21924;51.934;7.414;2023-02-23T16:21:00;7.70;99.90
35804;DHT22;21924;51.934;7.414;2023-02-23T16:23:48;7.70;99.90
35804;DHT22;21924;51.934;7.414;2023-02-23T16:26:49;7.70;99.90
35804;DHT22;21924;51.934;7.414;2023-02-23T16:29:38;7.70;99.90
35804;DHT22;21924;51.934;7.414;2023-02-23T16:32:32;7.70;99.90
35804;DHT22;21924;51.934;7.414;2023-02-23T16:35:19;7.70;99.90
35804;DHT22;21924;51.934;7.414;2023-02-23T16:38:14;7.70;99.90
35804;DHT22;21924;51.934;7.414;2023-02-23T16:40:58;7.60;99.90
35804;DHT22;21924;51.934;7.414;2023-02-23T16:43:42;7.70;99.90
35804;DHT22;21924;51.934;7.414;2023-02-23T16:46:53;7.60;99.90
35804;DHT22;21924;51.934;7.414;2023-02-23T16:49:37;7.70;99.90
35804;DHT22;21924;51.934;7.414;2023-02-23T16:52:22;7.60;99.90
35804;DHT22;21924;51.934;7.414;2023-02-23T16:55:08;7.60;99.90
35804;DHT22;21924;51.934;7.414;2023-02-23T16:58:00;7.60;99.90
35804;DHT22;21924;51.934;7.414;2023-02-23T17:00:45;7.50;99.90
35804;DHT22;21924;51.934;7.414;2023-02-23T17:03:30;7.50;99.90
35804;DHT22;21924;51.934;7.414;2023-02-23T17:06:15;7.50;99.90
35804;DHT22;21924;51.934;7.414;2023-02-23T17:08:59;7.50;99.90
35804;DHT22;21924;51.934;7.414;2023-02-23T17:11:43;7.50;99.90
35804;DHT22;21924;51.934;7.414;2023-02-23T17:14:30;7.50;99.90
35804;DHT22;21924;51.934;7.414;2023-02-23T17:17:17;7.50;99.90
35804;DHT22;21924;51.934;7.414;2023-02-23T17:20:01;7.50;99.90
35804;DHT22;21924;51.934;7.414;2023-02-23T17:22:48;7.50;99.90
35804;DHT22;21924;51.934;7.414;2023-02-23T17:25:32;7.50;99.90
35804;DHT22;21924;51.934;7.414;2023-02-23T17:28:17;7.50;99.90
35804;DHT22;21924;51.934;7.414;2023-02-23T17:31:02;7.50;99.90
35804;DHT22;21924;51.934;7.414;2023-02-23T17:33:47;7.50;99.90
35804;DHT22;21924;51.934;7.414;2023-02-23T17:36:31;7.50;99.90
35804;DHT22;21924;51.934;7.414;2023-02-23T17:39:15;7.40;99.90
35804;DHT22;21924;51.934;7.414;2023-02-23T17:42:00;7.40;99.90
35804;DHT22;21924;51.934;7.414;2023-02-23T17:44:44;7.40;99.90
35804;DHT22;21924;51.934;7.414;2023-02-23T17:47:29;7.40;99.90
35804;DHT22;21924;51.934;7.414;2023-02-23T17:50:13;7.40;99.90
35804;DHT22;21924;51.934;7.414;2023-02-23T17:52:58;7.40;99.90
35804;DHT22;21924;51.934;7.414;2023-02-23T17:55:42;7.40;99.90
35804;DHT22;21924;51.934;7.414;2023-02-23T17:58:27;7.40;99.90
35804;DHT22;21924;51.934;7.414;2023-02-23T18:01:11;7.40;99.90
35804;DHT22;21924;51.934;7.414;2023-02-23T18:03:56;7.40;99.90
35804;DHT22;21924;51.934;7.414;2023-02-23T18:06:41;7.40;99.90
35804;DHT22;21924;51.934;7.414;2023-02-23T18:09:26;7.40;99.90
35804;DHT22;21924;51.934;7.414;2023-02-23T18:12:11;7.40;99.90
35804;DHT22;21924;51.934;7.414;2023-02-23T18:14:56;7.40;99.90
35804;DHT22;21924;51.934;7.414;2023-02-23T18:17:40;7.40;99.90
35804;DHT22;21924;51.934;7.414;2023-02-23T18:20:24;7.30;99.90
35804;DHT22;21924;51.934;7.414;2023-02-23T18:23:09;7.40;99.90
35804;DHT22;21924;51.934;7.414;2023-02-23T18:25:54;7.30;99.90
35804;DHT22;21924;51.934;7.414;2023-02-23T18:28:38;7.20;99.90
35804;DHT22;21924;51.934;7.414;2023-02-23T18:31:26;7.20;99.90
35804;DHT22;21924;51.934;7.414;2023-02-23T18:34:11;7.20;99.90
35804;DHT22;21924;51.934;7.414;2023-02-23T18:36:56;7.20;99.90
35804;DHT22;21924;51.934;7.414;2023-02-23T18:39:44;7.20;99.90
35804;DHT22;21924;51.934;7.414;2023-02-23T18:42:29;7.20;99.90
35804;DHT22;21924;51.934;7.414;2023-02-23T18:45:15;7.20;99.90
35804;DHT22;21924;51.934;7.414;2023-02-23T18:47:59;7.20;99.90
35804;DHT22;21924;51.934;7.414;2023-02-23T18:50:44;7.20;99.90
35804;DHT22;21924;51.934;7.414;2023-02-23T18:53:28;7.20;99.90
35804;DHT22;21924;51.934;7.414;2023-02-23T18:56:15;7.20;99.90
35804;DHT22;21924;51.934;7.414;2023-02-23T18:58:59;7.30;99.90
35804;DHT22;21924;51.934;7.414;2023-02-23T19:01:47;7.30;99.90
35804;DHT22;21924;51.934;7.414;2023-02-23T19:04:32;7.20;99.90
35804;DHT22;21924;51.934;7.414;2023-02-23T19:07:16;7.10;99.90
35804;DHT22;21924;51.934;7.414;2023-02-23T19:10:01;7.10;99.90
35804;DHT22;21924;51.934;7.414;2023-02-23T19:12:46;6.90;99.90
35804;DHT22;21924;51.934;7.414;2023-02-23T19:15:30;6.80;99.90
35804;DHT22;21924;51.934;7.414;2023-02-23T19:18:15;6.80;99.90
35804;DHT22;21924;51.934;7.414;2023-02-23T19:20:59;6.80;99.90
35804;DHT22;21924;51.934;7.414;2023-02-23T19:23:44;6.70;99.90
35804;DHT22;21924;51.934;7.414;2023-02-23T19:26:29;6.70;99.90
35804;DHT22;21924;51.934;7.414;2023-02-23T19:29:13;6.60;99.90
35804;DHT22;21924;51.934;7.414;2023-02-23T19:31:57;6.60;99.90
35804;DHT22;21924;51.934;7.414;2023-02-23T19:34:42;6.50;99.90
35804;DHT22;21924;51.934;7.414;2023-02-23T19:37:29;6.50;99.90
35804;DHT22;21924;51.934;7.414;2023-02-23T19:40:15;6.40;99.90
35804;DHT22;21924;51.934;7.414;2023-02-23T19:43:02;6.40;99.90
35804;DHT22;21924;51.934;7.414;2023-02-23T19:45:47;6.30;99.90
35804;DHT22;21924;51.934;7.414;2023-02-23T19:48:32;6.30;99.90
35804;DHT22;21924;51.934;7.414;2023-02-23T19:51:16;6.30;99.90
35804;DHT22;21924;51.934;7.414;2023-02-23T19:54:01;6.20;99.90
35804;DHT22;21924;51.934;7.414;2023-02-23T19:56:46;6.10;99.90
35804;DHT22;21924;51.934;7.414;2023-02-23T19:59:32;6.10;99.90
35804;DHT22;21924;51.934;7.414;2023-02-23T20:02:16;6.10;99.90